createdAt,value
2022-12-05T00:01:26.345Z,100327.00
2022-12-05T00:03:59.301Z,100321.75
2022-12-05T00:06:28.299Z,100324.47
2022-12-05T00:08:55.307Z,100319.34
2022-12-05T00:11:25.488Z,100315.00
2022-12-05T00:13:54.081Z,100323.72
2022-12-05T00:16:23.651Z,100315.00
2022-12-05T00:18:51.209Z,100310.72
2022-12-05T00:21:21.085Z,100313.25
2022-12-05T00:23:47.788Z,100315.84
2022-12-05T00:26:14.742Z,100322.00
2022-12-05T00:28:41.559Z,100311.56
2022-12-05T00:31:13.808Z,100315.97
2022-12-05T00:33:40.739Z,100309.03
2022-12-05T00:36:12.933Z,100305.59
2022-12-05T00:38:39.967Z,100304.72
2022-12-05T00:41:09.626Z,100305.59
2022-12-05T00:43:36.752Z,100310.78
2022-12-05T00:46:08.529Z,100309.84
2022-12-05T00:48:36.866Z,100318.63
2022-12-05T00:51:05.631Z,100316.81
2022-12-05T00:53:32.907Z,100322.84
2022-12-05T00:56:08.568Z,100323.72
2022-12-05T00:58:38.300Z,100328.97
2022-12-05T01:01:10.505Z,100323.66
2022-12-05T01:03:37.283Z,100331.50
2022-12-05T01:06:06.125Z,100325.44
2022-12-05T01:08:34.580Z,100324.53
2022-12-05T01:11:01.485Z,100311.63
2022-12-05T01:13:28.644Z,100315.91
2022-12-05T01:15:55.736Z,100312.44
2022-12-05T01:18:23.844Z,100309.91
2022-12-05T01:20:50.679Z,100319.47
2022-12-05T01:23:17.607Z,100322.91
2022-12-05T01:25:48.451Z,100316.88
2022-12-05T01:28:16.010Z,100318.63
2022-12-05T01:30:45.250Z,100322.13
2022-12-05T01:33:13.592Z,100323.72
2022-12-05T01:35:41.346Z,100312.44
2022-12-05T01:38:08.747Z,100309.97
2022-12-05T01:40:36.265Z,100298.56
2022-12-05T01:43:03.765Z,100296.88
2022-12-05T01:45:42.590Z,100289.09
2022-12-05T01:48:19.800Z,100291.75
2022-12-05T01:50:48.673Z,100298.63
2022-12-05T01:53:16.267Z,100303.06
2022-12-05T01:55:43.933Z,100295.19
2022-12-05T01:58:11.185Z,100296.94
2022-12-05T02:00:39.753Z,100295.25
2022-12-05T02:03:09.676Z,100310.13
2022-12-05T02:05:38.311Z,100288.44
2022-12-05T02:08:08.242Z,100299.69
2022-12-05T02:10:43.080Z,100307.53
2022-12-05T02:13:27.439Z,100287.53
2022-12-05T02:16:04.476Z,100287.53
2022-12-05T02:18:57.425Z,100291.81
2022-12-05T02:21:35.864Z,100290.97
2022-12-05T02:24:48.659Z,100290.00
2022-12-05T02:27:54.674Z,100287.47
2022-12-05T02:30:23.823Z,100282.28
2022-12-05T02:33:09.063Z,100286.59
2022-12-05T02:35:47.805Z,100292.72
2022-12-05T02:38:52.981Z,100280.50
2022-12-05T02:41:28.971Z,100277.84
2022-12-05T02:44:32.270Z,100289.19
2022-12-05T02:47:00.248Z,100274.47
2022-12-05T02:49:35.281Z,100284.81
2022-12-05T02:52:07.422Z,100279.75
2022-12-05T02:54:39.206Z,100285.72
2022-12-05T02:57:08.032Z,100274.53
2022-12-05T02:59:34.981Z,100276.22
2022-12-05T03:02:01.587Z,100283.28
2022-12-05T03:04:30.360Z,100285.00
2022-12-05T03:07:05.153Z,100271.88
2022-12-05T03:09:37.295Z,100269.34
2022-12-05T03:12:08.268Z,100273.78
2022-12-05T03:14:43.784Z,100271.94
2022-12-05T03:17:18.771Z,100276.31
2022-12-05T03:20:03.263Z,100276.31
2022-12-05T03:22:43.189Z,100267.66
2022-12-05T03:25:12.303Z,100271.13
2022-12-05T03:27:51.128Z,100269.41
2022-12-05T03:30:20.697Z,100271.94
2022-12-05T03:33:05.904Z,100269.47
2022-12-05T03:35:53.946Z,100267.59
2022-12-05T03:38:31.076Z,100269.28
2022-12-05T03:41:05.345Z,100264.16
2022-12-05T03:43:48.247Z,100273.63
2022-12-05T03:46:15.013Z,100275.38
2022-12-05T03:49:02.708Z,100262.41
2022-12-05T03:51:36.167Z,100258.03
2022-12-05T03:54:09.641Z,100264.03
2022-12-05T03:56:43.726Z,100248.41
2022-12-05T03:59:13.151Z,100246.69
2022-12-05T04:01:42.538Z,100245.75
2022-12-05T04:04:17.847Z,100246.56
2022-12-05T04:06:51.834Z,100246.38
2022-12-05T04:09:26.079Z,100243.00
2022-12-05T04:11:58.100Z,100245.47
2022-12-05T04:14:47.843Z,100255.06
2022-12-05T04:17:46.986Z,100259.38
2022-12-05T04:21:00.251Z,100249.88
2022-12-05T04:23:27.959Z,100253.25
2022-12-05T04:26:04.936Z,100253.25
2022-12-05T04:28:40.349Z,100255.78
2022-12-05T04:31:10.076Z,100263.66
2022-12-05T04:33:52.829Z,100261.94
2022-12-05T04:36:25.296Z,100265.41
2022-12-05T04:38:58.131Z,100260.09
2022-12-05T04:41:32.511Z,100248.91
2022-12-05T04:44:04.173Z,100248.84
2022-12-05T04:46:30.836Z,100256.63
2022-12-05T04:49:02.270Z,100250.59
2022-12-05T04:51:34.388Z,100251.44
2022-12-05T04:54:10.128Z,100253.19
2022-12-05T04:56:39.374Z,100257.47
2022-12-05T04:59:06.042Z,100261.81
2022-12-05T05:01:42.162Z,100270.59
2022-12-05T05:04:21.788Z,100278.31
2022-12-05T05:06:48.662Z,100275.78
2022-12-05T05:09:15.221Z,100287.84
2022-12-05T05:11:41.949Z,100278.25
2022-12-05T05:14:08.553Z,100277.47
2022-12-05T05:16:41.006Z,100273.91
2022-12-05T05:19:09.507Z,100262.69
2022-12-05T05:21:41.425Z,100262.66
2022-12-05T05:24:09.946Z,100256.63
2022-12-05T05:26:39.524Z,100263.47
2022-12-05T05:29:07.535Z,100263.41
2022-12-05T05:31:34.197Z,100268.59
2022-12-05T05:34:09.157Z,100275.53
2022-12-05T05:36:37.103Z,100280.84
2022-12-05T05:39:05.673Z,100279.03
2022-12-05T05:41:34.710Z,100276.44
2022-12-05T05:44:02.242Z,100280.84
2022-12-05T05:46:33.399Z,100271.31
2022-12-05T05:49:00.822Z,100282.66
2022-12-05T05:51:30.593Z,100284.34
2022-12-05T05:53:58.483Z,100284.41
2022-12-05T05:56:25.966Z,100274.88
2022-12-05T05:58:57.525Z,100286.19
2022-12-05T06:01:24.599Z,100285.19
2022-12-05T06:03:51.710Z,100294.69
2022-12-05T06:06:19.441Z,100283.53
2022-12-05T06:08:46.768Z,100275.78
2022-12-05T06:11:25.692Z,100274.22
2022-12-05T06:13:56.782Z,100277.63
2022-12-05T06:16:23.475Z,100283.66
2022-12-05T06:18:53.956Z,100296.69
2022-12-05T06:21:22.069Z,100309.59
2022-12-05T06:23:50.606Z,100288.78
2022-12-05T06:26:20.234Z,100287.94
2022-12-05T06:28:47.813Z,100288.84
2022-12-05T06:31:17.955Z,100280.13
2022-12-05T06:33:45.868Z,100284.47
2022-12-05T06:36:16.517Z,100285.31
2022-12-05T06:38:43.622Z,100279.34
2022-12-05T06:41:14.610Z,100282.81
2022-12-05T06:43:41.513Z,100282.81
2022-12-05T06:46:10.516Z,100281.94
2022-12-05T06:48:37.601Z,100282.81
2022-12-05T06:51:07.068Z,100282.75
2022-12-05T06:53:33.692Z,100287.13
2022-12-05T06:56:06.408Z,100285.25
2022-12-05T06:58:33.022Z,100280.94
2022-12-05T07:01:18.819Z,100274.63
2022-12-05T07:03:45.635Z,100276.50
2022-12-05T07:06:12.293Z,100287.66
2022-12-05T07:08:39.215Z,100277.09
2022-12-05T07:11:05.935Z,100271.09
2022-12-05T07:13:32.947Z,100269.50
2022-12-05T07:16:00.493Z,100270.31
2022-12-05T07:18:27.760Z,100264.22
2022-12-05T07:21:14.876Z,100266.13
2022-12-05T07:23:43.601Z,100266.19
2022-12-05T07:26:13.995Z,100265.34
2022-12-05T07:28:41.137Z,100273.25
2022-12-05T07:31:14.261Z,100275.97
2022-12-05T07:33:41.378Z,100280.44
2022-12-05T07:36:14.851Z,100281.28
2022-12-05T07:38:42.528Z,100282.16
2022-12-05T07:41:13.450Z,100287.53
2022-12-05T07:43:41.430Z,100278.91
2022-12-05T07:46:11.586Z,100298.88
2022-12-05T07:48:39.111Z,100295.25
2022-12-05T07:51:08.130Z,100298.88
2022-12-05T07:53:35.547Z,100298.81
2022-12-05T07:56:04.117Z,100302.41
2022-12-05T07:58:33.273Z,100296.34
2022-12-05T08:01:08.760Z,100299.09
2022-12-05T08:03:39.388Z,100295.44
2022-12-05T08:06:11.583Z,100306.06
2022-12-05T08:08:38.744Z,100301.75
2022-12-05T08:11:15.455Z,100309.59
2022-12-05T08:13:43.465Z,100306.28
2022-12-05T08:16:13.912Z,100315.84
2022-12-05T08:18:42.428Z,100312.53
2022-12-05T08:21:13.550Z,100305.50
2022-12-05T08:23:40.709Z,100315.03
2022-12-05T08:26:13.463Z,100313.25
2022-12-05T08:28:40.977Z,100322.00
2022-12-05T08:31:16.625Z,100320.31
2022-12-05T08:33:43.886Z,100317.03
2022-12-05T08:36:14.045Z,100316.84
2022-12-05T08:38:41.288Z,100319.63
2022-12-05T08:41:10.993Z,100321.44
2022-12-05T08:43:39.251Z,100316.31
2022-12-05T08:46:08.238Z,100318.09
2022-12-05T08:48:36.222Z,100322.44
2022-12-05T08:51:10.693Z,100323.22
2022-12-05T08:53:43.810Z,100320.44
2022-12-05T08:56:12.184Z,100324.06
2022-12-05T08:58:39.455Z,100316.97
2022-12-05T09:01:17.825Z,100309.97
2022-12-05T09:03:48.213Z,100310.94
2022-12-05T09:06:21.408Z,100311.78
2022-12-05T09:08:53.804Z,100311.19
2022-12-05T09:11:24.192Z,100307.69
2022-12-05T09:13:52.814Z,100307.09
2022-12-05T09:16:22.669Z,100301.09
2022-12-05T09:18:51.385Z,100295.25
2022-12-05T09:21:20.638Z,100296.88
2022-12-05T09:23:48.787Z,100301.22
2022-12-05T09:28:57.377Z,100301.28
2022-12-05T09:31:29.600Z,100292.75
2022-12-05T09:33:56.613Z,100295.56
2022-12-05T09:36:28.622Z,100287.81
2022-12-05T09:38:59.103Z,100288.94
2022-12-05T09:41:50.035Z,100303.16
2022-12-05T09:44:34.123Z,100283.53
2022-12-05T09:47:38.691Z,100280.94
2022-12-05T09:50:36.879Z,100283.78
2022-12-05T09:53:31.155Z,100292.72
2022-12-05T09:56:06.202Z,100284.25
2022-12-05T09:58:41.994Z,100278.25
2022-12-05T10:01:36.727Z,100285.31
2022-12-05T10:04:06.707Z,100283.78
2022-12-05T10:06:47.370Z,100271.56
2022-12-05T10:09:19.797Z,100274.00
2022-12-05T10:12:31.029Z,100269.69
2022-12-05T10:15:28.842Z,100271.56
2022-12-05T10:18:25.157Z,100271.69
2022-12-05T10:22:01.229Z,100267.31
2022-12-05T10:25:05.040Z,100264.81
2022-12-05T10:27:40.235Z,100267.44
2022-12-05T10:30:17.881Z,100262.28
2022-12-05T10:32:54.883Z,100264.72
2022-12-05T10:35:27.707Z,100263.84
2022-12-05T10:38:22.456Z,100265.72
2022-12-05T10:40:52.882Z,100255.31
2022-12-05T10:43:26.686Z,100251.97
2022-12-05T10:45:53.597Z,100263.19
2022-12-05T10:48:23.030Z,100257.28
2022-12-05T10:50:52.522Z,100274.75
2022-12-05T10:53:28.604Z,100266.91
2022-12-05T10:56:28.688Z,100255.69
2022-12-05T10:58:57.577Z,100268.88
2022-12-05T11:01:26.199Z,100270.03
2022-12-05T11:03:59.850Z,100268.25
2022-12-05T11:06:31.619Z,100268.44
2022-12-05T11:09:13.481Z,100273.56
2022-12-05T11:11:40.444Z,100274.41
2022-12-05T11:14:26.104Z,100272.53
2022-12-05T11:16:55.495Z,100270.94
2022-12-05T11:19:25.269Z,100262.03
2022-12-05T11:21:53.722Z,100257.66
2022-12-05T11:24:32.034Z,100258.72
2022-12-05T11:27:32.301Z,100258.72
2022-12-05T11:30:10.718Z,100254.63
2022-12-05T11:32:37.357Z,100260.78
2022-12-05T11:35:22.698Z,100257.28
2022-12-05T11:37:56.869Z,100247.50
2022-12-05T11:40:40.102Z,100248.63
2022-12-05T11:43:32.997Z,100240.91
2022-12-05T11:46:20.159Z,100248.03
2022-12-05T11:49:18.083Z,100251.47
2022-12-05T11:52:04.503Z,100247.06
2022-12-05T11:57:35.016Z,100249.69
2022-12-05T12:00:15.785Z,100236.41
2022-12-05T12:03:01.026Z,100235.81
2022-12-05T12:05:58.099Z,100229.19
2022-12-05T12:08:30.441Z,100240.03
2022-12-05T12:11:15.508Z,100233.75
2022-12-05T12:14:00.730Z,100226.44
2022-12-05T12:17:10.471Z,100227.41
2022-12-05T12:20:03.579Z,100224.88
2022-12-05T12:22:59.172Z,100229.34
2022-12-05T12:26:08.329Z,100228.03
2022-12-05T12:28:47.985Z,100222.63
2022-12-05T12:31:31.945Z,100228.22
2022-12-05T12:34:26.531Z,100223.97
2022-12-05T12:37:06.198Z,100227.38
2022-12-05T12:40:07.368Z,100218.06
2022-12-05T12:42:40.015Z,100222.25
2022-12-05T12:45:33.685Z,100228.53
2022-12-05T12:48:25.981Z,100229.78
2022-12-05T12:51:05.773Z,100225.44
2022-12-05T12:55:02.316Z,100235.75
2022-12-05T12:57:33.801Z,100228.00
2022-12-05T13:00:12.326Z,100229.84
2022-12-05T13:02:48.562Z,100231.53
2022-12-05T13:05:47.220Z,100228.97
2022-12-05T13:08:22.530Z,100225.47
2022-12-05T13:10:50.075Z,100225.63
2022-12-05T13:13:24.188Z,100226.53
2022-12-05T13:15:57.983Z,100235.25
2022-12-05T13:18:25.498Z,100229.91
2022-12-05T13:20:56.602Z,100232.72
2022-12-05T13:23:27.107Z,100236.97
2022-12-05T13:25:56.881Z,100244.16
2022-12-05T13:28:32.485Z,100243.00
2022-12-05T13:31:02.683Z,100247.31
2022-12-05T13:33:36.186Z,100247.88
2022-12-05T13:36:28.413Z,100250.59
2022-12-05T13:39:19.259Z,100251.94
2022-12-05T13:42:14.074Z,100250.25
2022-12-05T13:44:45.364Z,100245.97
2022-12-05T13:47:32.307Z,100255.88
2022-12-05T13:50:21.218Z,100239.31
2022-12-05T13:52:55.291Z,100246.94
2022-12-05T13:55:38.424Z,100233.84
2022-12-05T13:58:21.766Z,100235.81
2022-12-05T14:00:50.712Z,100237.47
2022-12-05T14:03:40.281Z,100239.50
2022-12-05T14:06:07.412Z,100239.09
2022-12-05T14:08:52.678Z,100243.31
2022-12-05T14:11:19.657Z,100235.50
2022-12-05T14:13:46.445Z,100236.34
2022-12-05T14:16:25.147Z,100241.72
2022-12-05T14:19:33.899Z,100229.50
2022-12-05T14:22:24.189Z,100233.09
2022-12-05T14:25:04.460Z,100233.97
2022-12-05T14:27:53.414Z,100219.19
2022-12-05T14:30:30.042Z,100227.00
2022-12-05T14:33:01.974Z,100228.69
2022-12-05T14:35:42.541Z,100228.69
2022-12-05T14:38:23.594Z,100226.94
2022-12-05T14:40:51.460Z,100227.84
2022-12-05T14:43:40.762Z,100222.63
2022-12-05T14:46:15.819Z,100230.41
2022-12-05T14:48:48.656Z,100221.69
2022-12-05T14:51:30.303Z,100220.03
2022-12-05T14:54:14.860Z,100227.78
2022-12-05T14:56:50.619Z,100229.50
2022-12-05T14:59:32.240Z,100233.06
2022-12-05T15:02:02.075Z,100234.75
2022-12-05T15:04:47.024Z,100243.63
2022-12-05T15:07:35.114Z,100238.31
2022-12-05T15:10:01.993Z,100242.66
2022-12-05T15:12:46.985Z,100240.97
2022-12-05T15:15:17.524Z,100230.53
2022-12-05T15:17:53.385Z,100217.53
2022-12-05T15:20:46.644Z,100235.00
2022-12-05T15:23:43.200Z,100223.72
2022-12-05T15:26:48.707Z,100230.69
2022-12-05T15:29:23.292Z,100231.78
2022-12-05T15:31:53.251Z,100234.50
2022-12-05T15:34:47.828Z,100227.38
2022-12-05T15:37:32.862Z,100229.94
2022-12-05T15:40:02.439Z,100225.66
2022-12-05T15:42:34.750Z,100225.66
2022-12-05T15:45:13.849Z,100226.53
2022-12-05T15:48:05.128Z,100229.19
2022-12-05T15:50:42.051Z,100230.94
2022-12-05T15:53:14.671Z,100224.03
2022-12-05T15:55:56.548Z,100222.31
2022-12-05T15:58:27.431Z,100223.22
2022-12-05T16:01:01.731Z,100224.91
2022-12-05T16:03:36.910Z,100229.38
2022-12-05T16:06:29.438Z,100233.69
2022-12-05T16:09:01.412Z,100226.81
2022-12-05T16:11:28.238Z,100232.91
2022-12-05T16:14:01.084Z,100240.66
2022-12-05T16:16:32.626Z,100234.63
2022-12-05T16:19:07.956Z,100233.81
2022-12-05T16:21:39.423Z,100242.59
2022-12-05T16:24:11.261Z,100240.00
2022-12-05T16:26:39.791Z,100240.84
2022-12-05T16:29:09.559Z,100246.16
2022-12-05T16:31:36.580Z,100248.78
2022-12-05T16:34:06.906Z,100251.41
2022-12-05T16:36:34.913Z,100255.81
2022-12-05T16:39:07.692Z,100254.16
2022-12-05T16:41:40.788Z,100250.69
2022-12-05T16:44:46.449Z,100250.81
2022-12-05T16:47:42.140Z,100249.97
2022-12-05T16:50:22.628Z,100253.50
2022-12-05T16:52:50.278Z,100246.53
2022-12-05T16:55:19.736Z,100250.88
2022-12-05T16:57:46.435Z,100249.97
2022-12-05T17:00:16.002Z,100253.50
2022-12-05T17:02:42.589Z,100246.53
2022-12-05T17:05:14.065Z,100256.09
2022-12-05T17:07:40.748Z,100256.91
2022-12-05T17:10:08.177Z,100259.50
2022-12-05T17:12:34.934Z,100252.50
2022-12-05T17:15:01.791Z,100258.66
2022-12-05T17:17:30.759Z,100261.16
2022-12-05T17:20:01.516Z,100254.28
2022-12-05T17:22:28.347Z,100251.59
2022-12-05T17:24:58.944Z,100255.09
2022-12-05T17:27:25.749Z,100251.59
2022-12-05T17:29:52.404Z,100255.16
2022-12-05T17:32:19.073Z,100247.38
2022-12-05T17:34:45.637Z,100257.84
2022-12-05T17:37:12.234Z,100260.50
2022-12-05T17:39:39.051Z,100262.25
2022-12-05T17:42:05.684Z,100259.66
2022-12-05T17:44:37.936Z,100263.06
2022-12-05T17:47:07.998Z,100258.69
2022-12-05T17:49:35.125Z,100262.16
2022-12-05T17:54:52.096Z,100256.63
2022-12-05T17:57:19.862Z,100258.41
2022-12-05T17:59:46.484Z,100251.44
2022-12-05T18:02:15.219Z,100254.97
2022-12-05T18:04:41.777Z,100256.72
2022-12-05T18:07:08.435Z,100251.50
2022-12-05T18:09:35.094Z,100245.28
2022-12-05T18:12:02.309Z,100249.72
2022-12-05T18:14:28.996Z,100247.91
2022-12-05T18:16:56.210Z,100247.81
2022-12-05T18:19:24.941Z,100245.84
2022-12-05T18:21:51.519Z,100247.56
2022-12-05T18:24:18.406Z,100244.97
2022-12-05T18:26:45.054Z,100253.66
2022-12-05T18:29:16.161Z,100254.47
2022-12-05T18:31:56.335Z,100258.00
2022-12-05T18:34:25.842Z,100252.78
2022-12-05T18:36:52.458Z,100262.25
2022-12-05T18:39:19.030Z,100257.81
2022-12-05T18:41:45.646Z,100258.66
2022-12-05T18:44:12.736Z,100256.84
2022-12-05T18:46:39.617Z,100253.38
2022-12-05T18:49:06.496Z,100257.66
2022-12-05T18:51:33.187Z,100255.78
2022-12-05T18:54:00.207Z,100254.03
2022-12-05T18:56:31.436Z,100250.59
2022-12-05T18:59:02.640Z,100234.00
2022-12-05T19:01:32.636Z,100238.25
2022-12-05T19:04:01.105Z,100240.97
2022-12-05T19:06:30.159Z,100240.97
2022-12-05T19:08:59.334Z,100241.88
2022-12-05T19:11:27.322Z,100247.94
2022-12-05T19:14:00.684Z,100243.59
2022-12-05T19:16:29.496Z,100247.03
2022-12-05T19:18:58.900Z,100238.38
2022-12-05T19:21:27.067Z,100247.97
2022-12-05T19:23:54.279Z,100244.53
2022-12-05T19:26:21.772Z,100242.75
2022-12-05T19:28:49.121Z,100241.91
2022-12-05T19:31:20.606Z,100247.22
2022-12-05T19:33:49.866Z,100248.19
2022-12-05T19:36:20.210Z,100243.00
2022-12-05T19:38:48.562Z,100246.56
2022-12-05T19:41:16.665Z,100239.59
2022-12-05T19:43:52.285Z,100246.66
2022-12-05T19:46:30.859Z,100240.56
2022-12-05T19:48:59.299Z,100238.00
2022-12-05T19:51:26.530Z,100240.50
2022-12-05T19:53:54.350Z,100230.97
2022-12-05T19:56:23.929Z,100243.16
2022-12-05T19:58:52.462Z,100237.00
2022-12-05T20:01:21.037Z,100247.53
2022-12-05T20:03:53.671Z,100237.09
2022-12-05T20:06:21.632Z,100236.22
2022-12-05T20:08:58.816Z,100235.38
2022-12-05T20:11:26.600Z,100237.94
2022-12-05T20:13:55.484Z,100234.50
2022-12-05T20:16:25.835Z,100232.69
2022-12-05T20:18:54.160Z,100237.84
2022-12-05T20:21:23.010Z,100235.25
2022-12-05T20:23:50.543Z,100232.63
2022-12-05T20:26:22.463Z,100231.75
2022-12-05T20:28:49.805Z,100230.88
2022-12-05T20:31:24.144Z,100226.53
2022-12-05T20:33:53.797Z,100229.94
2022-12-05T20:36:26.200Z,100223.88
2022-12-05T20:39:01.588Z,100215.91
2022-12-05T20:41:28.751Z,100216.81
2022-12-05T20:43:59.716Z,100224.63
2022-12-05T20:46:28.021Z,100229.03
2022-12-05T20:48:56.362Z,100230.78
2022-12-05T20:51:27.359Z,100235.19
2022-12-05T20:53:54.054Z,100232.53
2022-12-05T20:56:26.915Z,100242.09
2022-12-05T20:58:56.513Z,100235.94
2022-12-05T21:01:24.657Z,100236.81
2022-12-05T21:03:52.523Z,100235.75
2022-12-05T21:06:25.396Z,100240.16
2022-12-05T21:08:52.947Z,100239.56
2022-12-05T21:11:20.797Z,100238.91
2022-12-05T21:13:47.416Z,100240.56
2022-12-05T21:16:17.302Z,100230.06
2022-12-05T21:18:44.945Z,100230.00
2022-12-05T21:21:14.776Z,100228.97
2022-12-05T21:23:46.790Z,100220.19
2022-12-05T21:26:15.795Z,100221.03
2022-12-05T21:28:43.389Z,100224.53
2022-12-05T21:31:13.481Z,100217.56
2022-12-05T21:33:41.339Z,100208.91
2022-12-05T21:36:09.308Z,100213.31
2022-12-05T21:38:36.095Z,100212.41
2022-12-05T21:41:04.226Z,100215.97
2022-12-05T21:43:32.984Z,100210.84
2022-12-05T21:45:59.644Z,100216.00
2022-12-05T21:48:26.563Z,100222.03
2022-12-05T21:50:53.632Z,100225.44
2022-12-05T21:53:21.071Z,100227.13
2022-12-05T21:55:48.125Z,100221.97
2022-12-05T21:58:17.620Z,100224.47
2022-12-05T22:00:44.257Z,100211.50
2022-12-05T22:03:14.873Z,100210.66
2022-12-05T22:05:42.113Z,100208.91
2022-12-05T22:08:08.906Z,100207.19
2022-12-05T22:10:36.012Z,100203.59
2022-12-05T22:13:03.502Z,100200.94
2022-12-05T22:15:30.423Z,100197.50
2022-12-05T22:17:57.033Z,100197.50
2022-12-05T22:20:23.942Z,100199.19
2022-12-05T22:22:50.608Z,100194.78
2022-12-05T22:25:17.239Z,100190.44
2022-12-05T22:27:43.912Z,100193.88
2022-12-05T22:30:10.858Z,100195.53
2022-12-05T22:32:37.442Z,100184.22
2022-12-05T22:35:04.633Z,100187.72
2022-12-05T22:37:31.660Z,100189.38
2022-12-05T22:39:59.013Z,100194.63
2022-12-05T22:42:28.684Z,100197.19
2022-12-05T22:44:56.321Z,100187.63
2022-12-05T22:47:23.354Z,100192.69
2022-12-05T22:49:49.903Z,100187.47
2022-12-05T22:52:16.565Z,100177.91
2022-12-05T22:54:43.184Z,100169.25
2022-12-05T22:57:09.754Z,100171.84
2022-12-05T22:59:36.381Z,100161.34
2022-12-05T23:02:02.981Z,100159.69
2022-12-05T23:04:29.614Z,100164.00
2022-12-05T23:06:58.812Z,100157.06
2022-12-05T23:09:25.408Z,100157.19
2022-12-05T23:11:52.033Z,100154.53
2022-12-05T23:14:18.743Z,100153.66
2022-12-05T23:16:45.364Z,100144.16
2022-12-05T23:19:12.008Z,100150.31
2022-12-05T23:21:40.325Z,100134.78
2022-12-05T23:24:10.540Z,100138.28
2022-12-05T23:26:41.647Z,100131.38
2022-12-05T23:29:09.301Z,100129.69
2022-12-05T23:31:36.183Z,100120.06
2022-12-05T23:34:04.228Z,100121.72
2022-12-05T23:36:33.312Z,100109.50
2022-12-05T23:39:00.298Z,100118.06
2022-12-05T23:41:27.579Z,100113.72
2022-12-05T23:43:54.914Z,100127.72
2022-12-05T23:46:24.040Z,100110.41
2022-12-05T23:48:51.812Z,100110.44
2022-12-05T23:51:21.242Z,100096.47
2022-12-05T23:53:51.800Z,100097.41
2022-12-05T23:56:20.540Z,100096.63
2022-12-05T23:58:47.426Z,100080.00
